createdAt,value
2022-11-26T00:02:28.065Z,101084.25
2022-11-26T00:05:02.572Z,101095.55
2022-11-26T00:07:36.056Z,101096.79
2022-11-26T00:10:19.108Z,101091.32
2022-11-26T00:12:50.304Z,101103.46
2022-11-26T00:15:25.255Z,101109.41
2022-11-26T00:17:57.900Z,101110.52
2022-11-26T00:20:31.545Z,101111.44
2022-11-26T00:23:05.501Z,101116.67
2022-11-26T00:25:44.678Z,101123.22
2022-11-26T00:28:27.324Z,101123.78
2022-11-26T00:31:01.922Z,101126.79
2022-11-26T00:33:36.454Z,101130.23
2022-11-26T00:36:18.719Z,101123.38
2022-11-26T00:38:55.173Z,101125.40
2022-11-26T00:41:30.973Z,101125.57
2022-11-26T00:44:03.944Z,101124.84
2022-11-26T00:46:37.112Z,101126.35
2022-11-26T00:49:10.228Z,101131.02
2022-11-26T00:51:44.366Z,101132.11
2022-11-26T00:54:20.536Z,101134.98
2022-11-26T00:56:53.968Z,101119.93
2022-11-26T00:59:26.918Z,101129.46
2022-11-26T01:01:57.250Z,101127.27
2022-11-26T01:04:29.423Z,101128.29
2022-11-26T01:07:01.863Z,101132.77
2022-11-26T01:09:34.635Z,101134.77
2022-11-26T01:12:14.043Z,101137.47
2022-11-26T01:14:46.386Z,101140.02
2022-11-26T01:17:18.939Z,101140.40
2022-11-26T01:19:50.896Z,101143.49
2022-11-26T01:22:25.571Z,101141.23
2022-11-26T01:24:57.732Z,101144.77
2022-11-26T01:27:30.846Z,101145.59
2022-11-26T01:30:02.964Z,101145.55
2022-11-26T01:32:35.520Z,101146.56
2022-11-26T01:35:06.843Z,101150.38
2022-11-26T01:37:39.495Z,101145.56
2022-11-26T01:40:40.440Z,101149.02
2022-11-26T01:43:25.178Z,101151.60
2022-11-26T01:45:59.908Z,101151.47
2022-11-26T01:48:35.183Z,101153.26
2022-11-26T01:51:11.742Z,101153.67
2022-11-26T01:53:52.926Z,101154.45
2022-11-26T01:56:32.242Z,101154.84
2022-11-26T01:59:09.939Z,101156.41
2022-11-26T02:01:42.397Z,101158.85
2022-11-26T02:04:14.897Z,101157.65
2022-11-26T02:06:50.581Z,101154.55
2022-11-26T02:09:26.050Z,101158.86
2022-11-26T02:11:58.768Z,101157.27
2022-11-26T02:14:35.820Z,101158.34
2022-11-26T02:17:26.345Z,101159.73
2022-11-26T02:20:36.402Z,101159.85
2022-11-26T02:23:52.636Z,101159.16
2022-11-26T02:26:49.470Z,101159.20
2022-11-26T02:29:30.506Z,101159.80
2022-11-26T02:32:10.137Z,101156.88
2022-11-26T02:34:49.755Z,101157.17
2022-11-26T02:37:26.616Z,101161.13
2022-11-26T02:39:59.275Z,101161.23
2022-11-26T02:42:33.136Z,101156.66
2022-11-26T02:45:09.026Z,101152.41
2022-11-26T02:47:47.032Z,101151.80
2022-11-26T02:50:23.359Z,101158.87
2022-11-26T02:52:58.502Z,101157.14
2022-11-26T02:55:36.658Z,101164.11
2022-11-26T02:58:09.862Z,101172.73
2022-11-26T03:00:43.166Z,101178.69
2022-11-26T03:03:23.969Z,101184.10
2022-11-26T03:05:59.127Z,101188.61
2022-11-26T03:08:32.751Z,101187.30
2022-11-26T03:11:06.207Z,101184.98
2022-11-26T03:13:39.068Z,101189.22
2022-11-26T03:16:13.456Z,101191.29
2022-11-26T03:18:46.438Z,101195.14
2022-11-26T03:21:18.533Z,101203.06
2022-11-26T03:23:50.457Z,101206.42
2022-11-26T03:26:22.867Z,101206.75
2022-11-26T03:28:53.986Z,101212.20
2022-11-26T03:31:26.880Z,101219.34
2022-11-26T03:33:59.777Z,101218.49
2022-11-26T03:36:33.556Z,101221.26
2022-11-26T03:39:06.495Z,101220.50
2022-11-26T03:41:38.807Z,101223.23
2022-11-26T03:44:10.662Z,101218.54
2022-11-26T03:46:44.055Z,101219.84
2022-11-26T03:49:17.542Z,101221.27
2022-11-26T03:51:50.285Z,101220.86
2022-11-26T03:54:21.229Z,101221.43
2022-11-26T03:56:54.138Z,101225.20
2022-11-26T03:59:27.266Z,101223.88
2022-11-26T04:01:59.437Z,101223.80
2022-11-26T04:04:32.666Z,101225.77
2022-11-26T04:07:04.506Z,101228.71
2022-11-26T04:09:36.503Z,101236.85
2022-11-26T04:12:09.161Z,101242.70
2022-11-26T04:14:41.166Z,101246.79
2022-11-26T04:17:13.406Z,101247.71
2022-11-26T04:19:45.097Z,101249.88
2022-11-26T04:22:17.458Z,101254.21
2022-11-26T04:24:49.129Z,101255.33
2022-11-26T04:27:21.994Z,101261.64
2022-11-26T04:29:53.872Z,101262.29
2022-11-26T04:32:25.694Z,101269.07
2022-11-26T04:34:57.489Z,101269.71
2022-11-26T04:37:29.341Z,101274.69
2022-11-26T04:40:01.516Z,101273.86
2022-11-26T04:42:34.676Z,101280.33
2022-11-26T04:45:08.207Z,101279.97
2022-11-26T04:47:42.958Z,101277.18
2022-11-26T04:50:15.786Z,101280.46
2022-11-26T04:52:48.619Z,101284.93
2022-11-26T04:55:22.413Z,101288.45
2022-11-26T04:57:55.091Z,101290.78
2022-11-26T05:00:27.180Z,101293.10
2022-11-26T05:02:59.186Z,101297.92
2022-11-26T05:05:31.115Z,101305.24
2022-11-26T05:08:03.053Z,101308.01
2022-11-26T05:10:36.305Z,101310.34
2022-11-26T05:13:08.350Z,101318.52
2022-11-26T05:15:40.198Z,101319.11
2022-11-26T05:18:12.351Z,101321.44
2022-11-26T05:20:45.300Z,101317.23
2022-11-26T05:23:17.415Z,101318.83
2022-11-26T05:25:51.483Z,101323.42
2022-11-26T05:28:23.433Z,101327.04
2022-11-26T05:31:02.972Z,101331.54
2022-11-26T05:33:34.961Z,101333.43
2022-11-26T05:36:08.174Z,101331.38
2022-11-26T05:38:40.704Z,101334.83
2022-11-26T05:41:12.893Z,101340.14
2022-11-26T05:43:45.984Z,101339.80
2022-11-26T05:46:22.313Z,101340.46
2022-11-26T05:48:54.914Z,101337.00
2022-11-26T05:51:26.792Z,101340.05
2022-11-26T05:53:59.171Z,101346.95
2022-11-26T05:56:32.446Z,101343.91
2022-11-26T05:59:05.203Z,101346.08
2022-11-26T06:01:37.803Z,101348.77
2022-11-26T06:04:10.034Z,101356.75
2022-11-26T06:06:42.496Z,101357.79
2022-11-26T06:09:14.970Z,101360.02
2022-11-26T06:11:46.888Z,101363.71
2022-11-26T06:14:20.256Z,101368.85
2022-11-26T06:16:52.828Z,101375.41
2022-11-26T06:19:27.129Z,101378.46
2022-11-26T06:22:00.250Z,101380.48
2022-11-26T06:24:33.903Z,101378.09
2022-11-26T06:27:06.440Z,101383.58
2022-11-26T06:29:40.508Z,101384.15
2022-11-26T06:32:12.709Z,101392.17
2022-11-26T06:34:45.547Z,101394.16
2022-11-26T06:37:20.513Z,101398.30
2022-11-26T06:39:51.151Z,101401.04
2022-11-26T06:42:24.206Z,101410.02
2022-11-26T06:44:59.794Z,101410.50
2022-11-26T06:47:33.545Z,101408.88
2022-11-26T06:50:10.699Z,101409.71
2022-11-26T06:52:45.199Z,101413.35
2022-11-26T06:55:17.869Z,101421.31
2022-11-26T06:57:53.523Z,101431.04
2022-11-26T07:00:28.315Z,101436.73
2022-11-26T07:03:02.600Z,101439.81
2022-11-26T07:05:36.578Z,101442.73
2022-11-26T07:08:10.331Z,101444.89
2022-11-26T07:10:48.709Z,101454.95
2022-11-26T07:13:21.417Z,101463.31
2022-11-26T07:15:54.519Z,101469.02
2022-11-26T07:18:27.318Z,101472.50
2022-11-26T07:21:07.488Z,101477.20
2022-11-26T07:23:40.607Z,101482.76
2022-11-26T07:26:15.304Z,101476.04
2022-11-26T07:28:49.009Z,101477.13
2022-11-26T07:31:23.677Z,101478.21
2022-11-26T07:33:57.160Z,101485.27
2022-11-26T07:36:31.364Z,101493.09
2022-11-26T07:39:05.620Z,101499.17
2022-11-26T07:41:37.993Z,101498.65
2022-11-26T07:44:15.106Z,101499.91
2022-11-26T07:46:47.771Z,101506.19
2022-11-26T07:49:20.615Z,101510.27
2022-11-26T07:51:51.465Z,101510.36
2022-11-26T07:54:24.445Z,101516.21
2022-11-26T07:56:57.252Z,101512.06
2022-11-26T07:59:30.524Z,101518.16
2022-11-26T08:02:03.839Z,101521.39
2022-11-26T08:04:36.801Z,101517.25
2022-11-26T08:07:12.050Z,101519.29
2022-11-26T08:09:48.223Z,101522.72
2022-11-26T08:12:21.681Z,101523.34
2022-11-26T08:14:54.860Z,101522.20
2022-11-26T08:17:27.870Z,101523.71
2022-11-26T08:20:00.394Z,101531.83
2022-11-26T08:22:34.028Z,101530.55
2022-11-26T08:25:08.301Z,101536.82
2022-11-26T08:27:40.755Z,101540.52
2022-11-26T08:30:15.447Z,101543.54
2022-11-26T08:32:47.518Z,101533.34
2022-11-26T08:35:34.294Z,101536.27
2022-11-26T08:38:13.877Z,101534.46
2022-11-26T08:40:45.824Z,101537.30
2022-11-26T08:43:18.659Z,101541.46
2022-11-26T08:45:57.000Z,101548.98
2022-11-26T08:48:32.045Z,101552.89
2022-11-26T08:51:10.547Z,101553.27
2022-11-26T08:53:43.255Z,101554.62
2022-11-26T08:56:16.331Z,101550.42
2022-11-26T08:58:49.003Z,101557.84
2022-11-26T09:01:24.602Z,101575.46
2022-11-26T09:03:58.557Z,101573.27
2022-11-26T09:06:32.894Z,101566.70
2022-11-26T09:09:15.790Z,101573.56
2022-11-26T09:11:51.226Z,101582.64
2022-11-26T09:14:26.116Z,101575.33
2022-11-26T09:16:59.243Z,101574.02
2022-11-26T09:19:31.815Z,101581.77
2022-11-26T09:22:04.375Z,101576.92
2022-11-26T09:24:36.335Z,101583.14
2022-11-26T09:27:11.045Z,101589.46
2022-11-26T09:29:43.380Z,101593.44
2022-11-26T09:32:25.035Z,101595.09
2022-11-26T09:35:00.185Z,101594.14
2022-11-26T09:37:33.456Z,101596.63
2022-11-26T09:40:05.913Z,101594.36
2022-11-26T09:42:53.884Z,101591.98
2022-11-26T09:45:39.331Z,101598.97
2022-11-26T09:48:16.837Z,101597.75
2022-11-26T09:50:52.717Z,101599.09
2022-11-26T09:53:28.332Z,101599.83
2022-11-26T09:56:02.426Z,101607.52
2022-11-26T09:58:41.854Z,101606.35
2022-11-26T10:01:19.701Z,101611.91
2022-11-26T10:03:53.843Z,101617.20
2022-11-26T10:06:39.557Z,101619.44
2022-11-26T10:09:44.336Z,101622.59
2022-11-26T10:12:56.265Z,101621.80
2022-11-26T10:15:38.834Z,101622.40
2022-11-26T10:18:24.170Z,101626.86
2022-11-26T10:21:12.462Z,101629.26
2022-11-26T10:23:49.036Z,101629.24
2022-11-26T10:26:25.763Z,101633.39
2022-11-26T10:29:08.221Z,101632.41
2022-11-26T10:31:47.467Z,101627.27
2022-11-26T10:34:29.826Z,101626.04
2022-11-26T10:37:03.427Z,101627.19
2022-11-26T10:39:35.465Z,101632.08
2022-11-26T10:42:14.856Z,101630.95
2022-11-26T10:44:47.686Z,101632.94
2022-11-26T10:47:34.490Z,101634.25
2022-11-26T10:53:25.138Z,101632.58
2022-11-26T10:55:59.108Z,101627.33
2022-11-26T10:58:34.623Z,101627.99
2022-11-26T11:01:08.495Z,101633.55
2022-11-26T11:06:44.689Z,101643.95
2022-11-26T11:09:33.024Z,101643.40
2022-11-26T11:12:23.609Z,101640.58
2022-11-26T11:14:56.176Z,101641.98
2022-11-26T11:17:33.753Z,101645.27
2022-11-26T11:20:27.291Z,101648.35
2022-11-26T11:23:06.791Z,101647.92
2022-11-26T11:25:41.567Z,101649.77
2022-11-26T11:28:20.575Z,101654.41
2022-11-26T11:31:05.789Z,101656.03
2022-11-26T11:33:38.374Z,101658.83
2022-11-26T11:36:22.934Z,101659.69
2022-11-26T11:38:56.107Z,101661.17
2022-11-26T11:41:32.890Z,101660.22
2022-11-26T11:44:14.460Z,101666.80
2022-11-26T11:47:24.204Z,101664.41
2022-11-26T11:50:20.772Z,101668.34
2022-11-26T11:53:17.755Z,101670.86
2022-11-26T11:56:19.084Z,101672.84
2022-11-26T11:59:22.376Z,101676.59
2022-11-26T12:02:17.264Z,101676.79
2022-11-26T12:05:04.926Z,101676.70
2022-11-26T12:07:49.055Z,101679.32
2022-11-26T12:10:33.900Z,101680.02
2022-11-26T12:13:14.259Z,101680.98
2022-11-26T12:15:54.782Z,101679.33
2022-11-26T12:18:32.499Z,101685.45
2022-11-26T12:21:11.163Z,101682.69
2022-11-26T12:23:49.996Z,101687.25
2022-11-26T12:26:32.248Z,101683.30
2022-11-26T12:29:11.913Z,101685.31
2022-11-26T12:31:48.117Z,101685.72
2022-11-26T12:34:30.177Z,101687.98
2022-11-26T12:37:06.441Z,101694.23
2022-11-26T12:39:51.916Z,101688.32
2022-11-26T12:42:31.592Z,101691.88
2022-11-26T12:45:19.190Z,101694.41
2022-11-26T12:47:59.238Z,101695.38
2022-11-26T12:50:40.120Z,101693.77
2022-11-26T12:53:23.005Z,101696.27
2022-11-26T12:55:56.511Z,101700.54
2022-11-26T12:58:45.698Z,101700.15
2022-11-26T13:01:17.542Z,101698.65
2022-11-26T13:03:49.527Z,101700.45
2022-11-26T13:06:33.738Z,101703.77
2022-11-26T13:09:22.897Z,101690.30
2022-11-26T13:12:05.117Z,101700.97
2022-11-26T13:14:42.825Z,101702.56
2022-11-26T13:17:17.203Z,101709.73
2022-11-26T13:19:53.003Z,101706.73
2022-11-26T13:23:04.011Z,101706.35
2022-11-26T13:25:53.450Z,101705.79
2022-11-26T13:28:37.575Z,101711.90
2022-11-26T13:31:29.785Z,101715.86
2022-11-26T13:34:17.165Z,101715.52
2022-11-26T13:37:11.418Z,101717.77
2022-11-26T13:40:04.567Z,101719.96
2022-11-26T13:42:44.856Z,101722.12
2022-11-26T13:45:58.852Z,101722.30
2022-11-26T13:48:40.312Z,101721.71
2022-11-26T13:51:19.723Z,101723.73
2022-11-26T13:53:57.527Z,101726.12
2022-11-26T13:56:32.851Z,101723.34
2022-11-26T13:59:14.298Z,101730.89
2022-11-26T14:01:47.692Z,101734.52
2022-11-26T14:04:54.873Z,101737.42
2022-11-26T14:07:27.733Z,101741.15
2022-11-26T14:10:02.439Z,101741.73
2022-11-26T14:13:11.672Z,101745.83
2022-11-26T14:16:10.738Z,101741.11
2022-11-26T14:19:08.667Z,101744.19
2022-11-26T14:22:03.576Z,101747.45
2022-11-26T14:25:05.278Z,101748.66
2022-11-26T14:27:40.643Z,101746.08
2022-11-26T14:30:29.938Z,101748.16
2022-11-26T14:33:13.035Z,101750.80
2022-11-26T14:35:56.885Z,101749.36
2022-11-26T14:38:34.867Z,101759.01
2022-11-26T14:41:06.792Z,101767.67
2022-11-26T14:43:39.512Z,101763.14
2022-11-26T14:46:17.994Z,101765.27
2022-11-26T14:48:51.020Z,101770.83
2022-11-26T14:51:28.033Z,101769.16
2022-11-26T14:54:02.442Z,101769.86
2022-11-26T14:56:41.810Z,101775.27
2022-11-26T14:59:18.800Z,101776.52
2022-11-26T15:01:51.614Z,101783.13
2022-11-26T15:04:29.247Z,101783.06
2022-11-26T15:07:02.535Z,101787.21
2022-11-26T15:09:35.083Z,101789.00
2022-11-26T15:12:13.935Z,101790.29
2022-11-26T15:14:49.980Z,101788.25
2022-11-26T15:17:25.157Z,101794.23
2022-11-26T15:19:59.335Z,101796.58
2022-11-26T15:22:37.650Z,101797.14
2022-11-26T15:25:18.497Z,101803.16
2022-11-26T15:27:59.918Z,101797.83
2022-11-26T15:30:33.399Z,101798.52
2022-11-26T15:33:13.422Z,101797.40
2022-11-26T15:35:46.756Z,101799.89
2022-11-26T15:38:20.913Z,101799.93
2022-11-26T15:40:56.977Z,101798.70
2022-11-26T15:43:36.436Z,101798.98
2022-11-26T15:46:18.035Z,101797.71
2022-11-26T15:48:53.654Z,101811.09
2022-11-26T15:51:35.553Z,101813.35
2022-11-26T15:54:19.082Z,101811.14
2022-11-26T15:56:56.493Z,101806.94
2022-11-26T15:59:34.242Z,101810.38
2022-11-26T16:02:19.608Z,101803.64
2022-11-26T16:04:54.151Z,101804.55
2022-11-26T16:07:29.691Z,101813.95
2022-11-26T16:10:27.011Z,101816.14
2022-11-26T16:13:23.225Z,101818.65
2022-11-26T16:16:03.260Z,101814.45
2022-11-26T16:18:42.763Z,101814.48
2022-11-26T16:21:22.368Z,101813.11
2022-11-26T16:24:02.152Z,101813.44
2022-11-26T16:26:52.924Z,101817.45
2022-11-26T16:29:25.025Z,101822.11
2022-11-26T16:31:58.477Z,101822.78
2022-11-26T16:34:31.443Z,101821.33
2022-11-26T16:37:17.809Z,101825.92
2022-11-26T16:39:54.089Z,101830.65
2022-11-26T16:42:27.083Z,101831.83
2022-11-26T16:45:03.936Z,101835.48
2022-11-26T16:47:42.329Z,101833.98
2022-11-26T16:50:20.427Z,101827.48
2022-11-26T16:52:56.683Z,101826.04
2022-11-26T16:55:29.673Z,101818.77
2022-11-26T16:58:02.925Z,101827.34
2022-11-26T17:00:36.760Z,101821.45
2022-11-26T17:03:13.069Z,101823.89
2022-11-26T17:05:46.651Z,101820.25
2022-11-26T17:08:19.321Z,101819.84
2022-11-26T17:10:52.736Z,101825.45
2022-11-26T17:13:25.448Z,101827.33
2022-11-26T17:15:58.740Z,101820.70
2022-11-26T17:18:30.804Z,101823.76
2022-11-26T17:21:04.066Z,101825.16
2022-11-26T17:23:36.291Z,101832.17
2022-11-26T17:26:19.192Z,101835.96
2022-11-26T17:28:52.785Z,101834.97
2022-11-26T17:31:24.581Z,101832.80
2022-11-26T17:33:56.854Z,101834.73
2022-11-26T17:36:36.447Z,101830.42
2022-11-26T17:39:10.585Z,101833.94
2022-11-26T17:41:42.898Z,101838.42
2022-11-26T17:44:14.782Z,101838.14
2022-11-26T17:47:15.788Z,101833.85
2022-11-26T17:49:39.221Z,101834.58
2022-11-26T17:52:11.379Z,101837.30
2022-11-26T17:54:44.064Z,101842.05
2022-11-26T17:57:15.123Z,101835.95
2022-11-26T17:59:47.280Z,101840.82
2022-11-26T18:02:19.828Z,101851.06
2022-11-26T18:04:50.581Z,101853.12
2022-11-26T18:07:22.714Z,101849.71
2022-11-26T18:09:57.772Z,101855.40
2022-11-26T18:12:34.407Z,101857.34
2022-11-26T18:15:08.443Z,101858.27
2022-11-26T18:17:41.384Z,101854.90
2022-11-26T18:20:14.503Z,101852.38
2022-11-26T18:22:50.356Z,101848.84
2022-11-26T18:25:23.178Z,101850.10
2022-11-26T18:27:55.372Z,101853.93
2022-11-26T18:30:30.603Z,101858.47
2022-11-26T18:33:03.420Z,101864.48
2022-11-26T18:35:35.784Z,101869.56
2022-11-26T18:38:11.029Z,101870.86
2022-11-26T18:40:43.807Z,101873.77
2022-11-26T18:43:17.028Z,101875.23
2022-11-26T18:45:50.822Z,101878.84
2022-11-26T18:48:22.877Z,101878.52
2022-11-26T18:51:00.374Z,101874.13
2022-11-26T18:53:32.070Z,101872.23
2022-11-26T18:56:07.395Z,101870.50
2022-11-26T18:58:39.493Z,101871.63
2022-11-26T19:01:21.792Z,101876.85
2022-11-26T19:03:55.139Z,101872.04
2022-11-26T19:06:29.107Z,101872.13
2022-11-26T19:09:03.089Z,101877.70
2022-11-26T19:11:35.711Z,101871.37
2022-11-26T19:14:07.821Z,101868.14
2022-11-26T19:16:39.854Z,101864.23
2022-11-26T19:19:11.947Z,101861.77
2022-11-26T19:21:43.737Z,101855.34
2022-11-26T19:24:15.557Z,101859.64
2022-11-26T19:26:47.238Z,101862.90
2022-11-26T19:29:18.945Z,101861.56
2022-11-26T19:31:50.751Z,101866.71
2022-11-26T19:34:23.013Z,101868.81
2022-11-26T19:36:57.806Z,101875.41
2022-11-26T19:39:29.624Z,101876.06
2022-11-26T19:42:01.525Z,101881.25
2022-11-26T19:44:34.547Z,101886.85
2022-11-26T19:47:06.510Z,101891.11
2022-11-26T19:49:38.606Z,101886.11
2022-11-26T19:52:10.680Z,101883.56
2022-11-26T19:54:42.498Z,101885.58
2022-11-26T19:57:15.027Z,101888.67
2022-11-26T19:59:46.989Z,101885.84
2022-11-26T20:02:19.111Z,101886.76
2022-11-26T20:04:51.461Z,101882.90
2022-11-26T20:07:23.480Z,101883.65
2022-11-26T20:09:55.696Z,101876.52
2022-11-26T20:12:28.498Z,101883.39
2022-11-26T20:15:00.653Z,101882.10
2022-11-26T20:17:32.574Z,101886.58
2022-11-26T20:20:05.361Z,101887.17
2022-11-26T20:22:39.286Z,101890.39
2022-11-26T20:25:15.351Z,101895.06
2022-11-26T20:27:47.255Z,101904.49
2022-11-26T20:30:20.261Z,101907.58
2022-11-26T20:32:52.014Z,101904.83
2022-11-26T20:35:24.439Z,101904.11
2022-11-26T20:37:56.825Z,101908.83
2022-11-26T20:40:29.213Z,101903.38
2022-11-26T20:43:01.170Z,101904.80
2022-11-26T20:45:33.323Z,101911.32
2022-11-26T20:48:05.601Z,101910.67
2022-11-26T20:50:38.709Z,101911.23
2022-11-26T20:53:10.511Z,101911.73
2022-11-26T20:55:42.184Z,101910.45
2022-11-26T20:58:14.199Z,101908.33
2022-11-26T21:00:46.284Z,101908.48
2022-11-26T21:03:18.072Z,101911.95
2022-11-26T21:05:50.076Z,101910.20
2022-11-26T21:08:23.952Z,101911.77
2022-11-26T21:10:56.266Z,101911.08
2022-11-26T21:13:28.029Z,101913.98
2022-11-26T21:16:02.202Z,101913.46
2022-11-26T21:18:34.178Z,101908.50
2022-11-26T21:21:11.599Z,101911.88
2022-11-26T21:23:44.948Z,101914.27
2022-11-26T21:26:19.460Z,101917.44
2022-11-26T21:28:54.626Z,101919.74
2022-11-26T21:31:30.123Z,101914.98
2022-11-26T21:34:04.183Z,101912.17
2022-11-26T21:36:37.944Z,101910.55
2022-11-26T21:39:09.893Z,101916.73
2022-11-26T21:41:42.475Z,101918.72
2022-11-26T21:44:14.866Z,101914.73
2022-11-26T21:46:46.805Z,101914.90
2022-11-26T21:49:18.738Z,101913.29
2022-11-26T21:51:51.785Z,101915.09
2022-11-26T21:54:23.753Z,101912.45
2022-11-26T21:56:55.609Z,101916.55
2022-11-26T21:59:29.018Z,101913.20
2022-11-26T22:02:01.116Z,101915.72
2022-11-26T22:04:33.788Z,101917.52
2022-11-26T22:07:06.139Z,101916.30
2022-11-26T22:09:39.382Z,101916.70
2022-11-26T22:12:12.798Z,101916.58
2022-11-26T22:14:44.720Z,101908.04
2022-11-26T22:17:17.232Z,101901.84
2022-11-26T22:19:49.635Z,101895.43
2022-11-26T22:22:22.339Z,101891.35
2022-11-26T22:24:54.975Z,101890.48
2022-11-26T22:27:26.822Z,101889.42
2022-11-26T22:29:58.539Z,101890.03
2022-11-26T22:32:30.356Z,101892.23
2022-11-26T22:35:02.416Z,101893.71
2022-11-26T22:37:34.340Z,101892.44
2022-11-26T22:40:07.569Z,101889.45
2022-11-26T22:42:40.938Z,101890.52
2022-11-26T22:45:13.763Z,101891.14
2022-11-26T22:47:47.442Z,101893.34
2022-11-26T22:50:21.669Z,101895.88
2022-11-26T22:52:53.924Z,101891.08
2022-11-26T22:55:25.708Z,101888.16
2022-11-26T22:57:57.442Z,101884.96
2022-11-26T23:00:51.096Z,101881.10
2022-11-26T23:03:24.601Z,101886.85
2022-11-26T23:05:57.319Z,101887.97
2022-11-26T23:08:29.003Z,101898.55
2022-11-26T23:11:05.440Z,101902.36
2022-11-26T23:13:37.579Z,101900.61
2022-11-26T23:16:11.158Z,101897.21
2022-11-26T23:18:43.552Z,101904.11
2022-11-26T23:21:17.386Z,101902.09
2022-11-26T23:23:50.015Z,101899.66
2022-11-26T23:26:26.541Z,101899.52
2022-11-26T23:29:00.845Z,101892.98
2022-11-26T23:31:34.909Z,101894.02
2022-11-26T23:34:07.780Z,101895.89
2022-11-26T23:36:37.927Z,101890.77
2022-11-26T23:39:12.161Z,101886.63
2022-11-26T23:41:44.765Z,101884.14
2022-11-26T23:44:16.362Z,101888.34
2022-11-26T23:46:48.411Z,101895.30
2022-11-26T23:49:22.622Z,101902.13
2022-11-26T23:51:54.263Z,101898.23
2022-11-26T23:54:26.243Z,101896.77
2022-11-26T23:56:58.022Z,101900.25
2022-11-26T23:59:29.770Z,101900.56
